Time;durP1;ratioP1;P1;durP2;ratioP2;P2;SDS_P1;SDS_P2;PMS_P1;PMS_P2;Temp;Humidity;BMP_temperature;BMP_pressure;BME280_temperature;BME280_humidity;BME280_pressure;Samples;Min_cycle;Max_cycle;Signal;HPM_P1;HPM_P2
2023/10/20 00:02:14;;;;;;;29.90;24.77;;;13.60;99.90;;;;;;5031328;28;20489;-66
2023/10/20 00:04:41;;;;;;;34.10;24.80;;;13.50;99.90;;;;;;5031309;28;20489;-65
2023/10/20 00:07:08;;;;;;;29.50;24.57;;;13.50;99.90;;;;;;5041873;28;20544;-65
2023/10/20 00:09:34;;;;;;;27.77;22.90;;;13.50;99.90;;;;;;5040798;28;20444;-65
2023/10/20 00:12:04;;;;;;;31.07;23.30;;;13.50;99.90;;;;;;5042834;28;20437;-65
2023/10/20 00:14:31;;;;;;;25.83;22.30;;;13.40;99.90;;;;;;5044499;28;20476;-66
2023/10/20 00:16:58;;;;;;;25.37;22.77;;;13.40;99.90;;;;;;5049517;28;20536;-65
2023/10/20 00:19:25;;;;;;;28.80;22.60;;;13.40;99.90;;;;;;5043992;28;20468;-66
2023/10/20 00:21:53;;;;;;;24.63;22.00;;;13.40;99.90;;;;;;5049048;28;20836;-66
2023/10/20 00:24:21;;;;;;;26.67;23.80;;;13.30;99.90;;;;;;5048862;28;21013;-66
2023/10/20 00:26:48;;;;;;;26.33;20.83;;;13.30;99.90;;;;;;5049872;28;20452;-66
2023/10/20 00:29:16;;;;;;;28.70;24.43;;;13.30;99.90;;;;;;5050333;28;20449;-66
2023/10/20 00:31:43;;;;;;;28.47;22.63;;;13.30;99.90;;;;;;5051288;28;20536;-65
2023/10/20 00:34:09;;;;;;;23.13;20.73;;;13.20;99.90;;;;;;5051075;28;20971;-66
2023/10/20 00:36:36;;;;;;;24.80;21.60;;;13.20;99.90;;;;;;5051306;28;20449;-66
2023/10/20 00:39:03;;;;;;;25.80;23.10;;;13.20;99.90;;;;;;5050935;28;20449;-66
2023/10/20 00:41:31;;;;;;;32.97;22.83;;;13.20;99.90;;;;;;5051197;28;20456;-66
2023/10/20 00:43:57;;;;;;;25.10;21.07;;;13.20;99.90;;;;;;5051254;28;20495;-66
2023/10/20 00:46:26;;;;;;;25.03;22.40;;;13.20;99.90;;;;;;5051228;28;20939;-66
2023/10/20 00:48:52;;;;;;;25.67;19.50;;;13.10;99.90;;;;;;5050970;28;20531;-66
2023/10/20 00:51:20;;;;;;;26.47;21.27;;;13.10;99.90;;;;;;5051272;28;20449;-66
2023/10/20 00:53:47;;;;;;;27.83;22.40;;;13.10;99.90;;;;;;5050224;28;20464;-66
2023/10/20 00:56:15;;;;;;;25.60;20.70;;;13.10;99.90;;;;;;5050699;28;20455;-66
2023/10/20 00:58:42;;;;;;;28.30;20.93;;;13.10;99.90;;;;;;5050861;28;20450;-66
2023/10/20 01:01:09;;;;;;;30.00;23.40;;;13.10;99.90;;;;;;5050939;28;20528;-66
2023/10/20 01:03:37;;;;;;;26.70;20.20;;;13.10;99.90;;;;;;5050967;28;20500;-66
2023/10/20 01:06:05;;;;;;;23.53;20.73;;;13.10;99.90;;;;;;5052533;28;20454;-65
2023/10/20 01:08:31;;;;;;;21.67;18.90;;;13.10;99.90;;;;;;5046052;28;20519;-66
2023/10/20 01:10:58;;;;;;;27.00;20.63;;;13.10;99.90;;;;;;5054791;28;20445;-65
2023/10/20 01:13:25;;;;;;;24.90;20.20;;;13.10;99.90;;;;;;5054933;28;20465;-65
2023/10/20 01:15:53;;;;;;;25.10;20.67;;;13.10;99.90;;;;;;5054345;28;20467;-66
2023/10/20 01:18:20;;;;;;;25.07;22.47;;;13.10;99.90;;;;;;5053758;28;20453;-66
2023/10/20 01:20:48;;;;;;;26.90;19.57;;;13.10;99.90;;;;;;5054772;28;20957;-66
2023/10/20 01:23:15;;;;;;;23.40;20.90;;;13.10;99.90;;;;;;5054510;28;20472;-65
2023/10/20 01:25:43;;;;;;;24.70;21.50;;;13.10;99.90;;;;;;5072054;22;20625;-63
2023/10/20 01:28:10;;;;;;;26.43;20.13;;;13.10;99.90;;;;;;4996299;28;20526;-63
2023/10/20 01:30:38;;;;;;;21.43;19.07;;;13.10;99.90;;;;;;4995110;28;20447;-63
2023/10/20 01:33:05;;;;;;;25.27;21.10;;;13.10;99.90;;;;;;4995299;28;20451;-64
2023/10/20 01:35:32;;;;;;;25.47;21.00;;;13.10;99.90;;;;;;4994968;28;20957;-63
2023/10/20 01:37:58;;;;;;;30.47;19.67;;;13.10;99.90;;;;;;4994954;28;20461;-64
2023/10/20 01:40:27;;;;;;;25.20;21.07;;;13.10;99.90;;;;;;4994732;28;20454;-64
2023/10/20 01:42:55;;;;;;;22.77;20.37;;;13.10;99.90;;;;;;4995172;28;20458;-63
2023/10/20 01:45:22;;;;;;;28.07;23.50;;;13.10;99.90;;;;;;4994786;28;20601;-62
2023/10/20 01:47:49;;;;;;;25.40;22.63;;;13.10;99.90;;;;;;4994940;28;20447;-64
2023/10/20 01:50:16;;;;;;;24.30;20.10;;;13.10;99.90;;;;;;4994533;28;20501;-62
2023/10/20 01:52:43;;;;;;;23.17;20.13;;;13.10;99.90;;;;;;4994729;28;20543;-63
2023/10/20 01:55:10;;;;;;;23.07;20.67;;;13.10;99.90;;;;;;4994875;28;20931;-63
2023/10/20 01:57:37;;;;;;;21.80;19.60;;;13.10;99.90;;;;;;4994797;28;20546;-64
2023/10/20 02:00:10;;;;;;;26.37;23.50;;;13.10;99.90;;;;;;4994741;28;20471;-63
2023/10/20 02:02:37;;;;;;;31.27;22.60;;;13.10;99.90;;;;;;4994829;28;20453;-63
2023/10/20 02:05:04;;;;;;;23.03;20.47;;;13.10;99.90;;;;;;4994733;28;20487;-63
2023/10/20 02:07:31;;;;;;;23.60;21.10;;;13.10;99.90;;;;;;4994574;28;20534;-64
2023/10/20 02:09:58;;;;;;;21.77;19.17;;;13.10;99.90;;;;;;4994526;28;20804;-62
2023/10/20 02:12:26;;;;;;;38.60;25.80;;;13.10;99.90;;;;;;4994569;28;20543;-64
2023/10/20 02:14:53;;;;;;;28.20;24.67;;;13.10;99.90;;;;;;4994740;28;20444;-63
2023/10/20 02:17:21;;;;;;;27.80;23.83;;;13.10;99.90;;;;;;4993402;28;20916;-63
2023/10/20 02:19:48;;;;;;;28.87;23.90;;;13.10;99.90;;;;;;4994358;28;20451;-63
2023/10/20 02:22:15;;;;;;;24.33;21.77;;;13.10;99.90;;;;;;4994498;28;20448;-64
2023/10/20 02:24:41;;;;;;;31.60;22.80;;;13.10;99.90;;;;;;4994315;28;20570;-63
2023/10/20 02:27:09;;;;;;;30.70;23.17;;;13.20;99.90;;;;;;4994029;28;20558;-64
2023/10/20 02:29:36;;;;;;;36.43;27.57;;;13.10;99.90;;;;;;4994066;28;21132;-64
2023/10/20 02:32:03;;;;;;;38.33;30.80;;;13.10;99.90;;;;;;4994381;28;20462;-64
2023/10/20 02:34:32;;;;;;;35.73;29.93;;;13.10;99.90;;;;;;4994167;28;20547;-63
2023/10/20 02:37:00;;;;;;;35.93;29.73;;;13.20;99.90;;;;;;4994195;28;20558;-63
2023/10/20 02:39:28;;;;;;;37.10;30.33;;;13.20;99.90;;;;;;4993706;28;20997;-63
2023/10/20 02:41:54;;;;;;;38.00;31.27;;;13.20;99.90;;;;;;4993942;28;20451;-63
2023/10/20 02:44:27;;;;;;;44.97;35.40;;;13.20;99.90;;;;;;4993867;28;20458;-63
2023/10/20 02:46:54;;;;;;;39.27;34.47;;;13.20;99.90;;;;;;4993721;28;20526;-63
2023/10/20 02:49:21;;;;;;;34.87;31.07;;;13.20;99.90;;;;;;4993740;28;20459;-64
2023/10/20 02:51:49;;;;;;;47.63;35.87;;;13.20;99.90;;;;;;4993945;28;20456;-63
2023/10/20 02:54:16;;;;;;;43.60;35.63;;;13.20;99.90;;;;;;4994056;28;20454;-63
2023/10/20 02:56:44;;;;;;;42.93;35.33;;;13.20;99.90;;;;;;4993963;28;20472;-61
2023/10/20 02:59:12;;;;;;;41.10;36.50;;;13.20;99.90;;;;;;4993456;28;20451;-63
2023/10/20 03:01:39;;;;;;;45.30;35.20;;;13.20;99.90;;;;;;4992991;28;20508;-63
2023/10/20 03:04:07;;;;;;;42.87;36.50;;;13.20;99.90;;;;;;4993849;28;20531;-64
2023/10/20 03:06:34;;;;;;;44.60;34.83;;;13.20;99.90;;;;;;4993383;28;21023;-63
2023/10/20 03:09:02;;;;;;;46.37;35.13;;;13.20;99.90;;;;;;4993125;28;20454;-64
2023/10/20 03:11:29;;;;;;;46.50;36.90;;;13.20;99.90;;;;;;4993504;28;20463;-64
2023/10/20 03:13:56;;;;;;;43.27;37.57;;;13.20;99.90;;;;;;4993275;28;20534;-63
2023/10/20 03:16:23;;;;;;;44.77;36.13;;;13.20;99.90;;;;;;4993551;28;20468;-63
2023/10/20 03:18:50;;;;;;;43.53;35.87;;;13.20;99.90;;;;;;4993201;28;20452;-63
2023/10/20 03:21:18;;;;;;;41.53;35.37;;;13.10;99.90;;;;;;4993517;28;20458;-64
2023/10/20 03:23:45;;;;;;;41.50;37.03;;;13.10;99.90;;;;;;4993206;28;20804;-63
2023/10/20 03:26:13;;;;;;;40.23;34.90;;;13.10;99.90;;;;;;4992913;28;20586;-62
2023/10/20 03:28:41;;;;;;;43.33;35.50;;;13.10;99.90;;;;;;4992716;28;20825;-63
2023/10/20 03:31:08;;;;;;;42.77;37.10;;;13.10;99.90;;;;;;4993241;28;20538;-64
2023/10/20 03:33:35;;;;;;;42.90;37.37;;;13.10;99.90;;;;;;4992926;28;20458;-63
2023/10/20 03:36:03;;;;;;;39.97;34.17;;;13.10;99.90;;;;;;4992401;28;20551;-64
2023/10/20 03:38:30;;;;;;;39.03;34.00;;;13.10;99.90;;;;;;4992581;28;20495;-63
2023/10/20 03:41:06;;;;;;;40.20;35.10;;;13.10;99.90;;;;;;4992711;28;20535;-64
2023/10/20 03:43:35;;;;;;;42.10;34.67;;;13.10;99.90;;;;;;4993035;28;20538;-64
2023/10/20 03:46:03;;;;;;;43.43;34.57;;;13.10;99.90;;;;;;4992786;28;20506;-64
2023/10/20 03:48:31;;;;;;;42.50;32.27;;;13.10;99.90;;;;;;4992346;28;20459;-64
2023/10/20 03:50:58;;;;;;;39.77;34.60;;;13.10;99.90;;;;;;4992791;28;21153;-63
2023/10/20 03:53:27;;;;;;;48.43;34.20;;;13.00;99.90;;;;;;4992505;28;20538;-63
2023/10/20 03:56:00;;;;;;;41.03;34.50;;;13.10;99.90;;;;;;4992663;28;20460;-63
2023/10/20 03:58:27;;;;;;;39.00;34.80;;;13.10;99.90;;;;;;4992375;28;20447;-63
2023/10/20 04:00:57;;;;;;;43.63;34.23;;;13.10;99.90;;;;;;4991460;28;20460;-63
2023/10/20 04:03:25;;;;;;;43.33;35.10;;;13.10;99.90;;;;;;4992424;28;20455;-63
2023/10/20 04:05:52;;;;;;;41.30;31.37;;;13.10;99.90;;;;;;4992217;28;20490;-63
2023/10/20 04:08:19;;;;;;;39.70;34.07;;;13.10;99.90;;;;;;4991653;28;20442;-64
2023/10/20 04:10:46;;;;;;;46.27;33.50;;;13.10;99.90;;;;;;4992120;28;20546;-64
2023/10/20 04:13:13;;;;;;;38.57;32.70;;;13.10;99.90;;;;;;4992336;28;20490;-64
2023/10/20 04:15:42;;;;;;;44.30;31.30;;;13.10;99.90;;;;;;4991959;28;20463;-64
2023/10/20 04:18:10;;;;;;;38.00;32.50;;;13.10;99.90;;;;;;4991940;28;20505;-64
2023/10/20 04:20:40;;;;;;;44.20;34.93;;;13.10;99.90;;;;;;4991927;28;20458;-64
2023/10/20 04:23:08;;;;;;;45.63;32.17;;;13.10;99.90;;;;;;4991829;28;20550;-64
2023/10/20 04:25:39;;;;;;;40.67;32.30;;;13.10;99.90;;;;;;4991842;28;20490;-63
2023/10/20 04:28:14;;;;;;;37.77;30.90;;;13.10;99.90;;;;;;4991989;28;20945;-63
2023/10/20 04:41:55;;;;;;;40.80;29.73;;;13.00;99.90;;;;;;4991747;28;20474;-64
2023/10/20 04:50:17;;;;;;;34.40;28.80;;;13.00;99.90;;;;;;4991564;28;20419;-64
2023/10/20 04:52:58;;;;;;;30.87;26.23;;;13.00;99.90;;;;;;4991985;28;20447;-64
2023/10/20 04:58:17;;;;;;;33.80;29.10;;;13.00;99.90;;;;;;4991683;28;20427;-64
2023/10/20 05:00:44;;;;;;;37.70;30.83;;;12.90;99.90;;;;;;4991936;28;20447;-63
2023/10/20 05:06:05;;;;;;;32.80;28.87;;;12.90;99.90;;;;;;4991247;28;20491;-63
2023/10/20 05:08:32;;;;;;;33.30;27.60;;;12.90;99.90;;;;;;4991178;28;21140;-63
2023/10/20 05:10:59;;;;;;;32.90;27.30;;;12.90;99.90;;;;;;4991897;28;20449;-63
2023/10/20 05:13:26;;;;;;;38.40;28.97;;;12.90;99.90;;;;;;4991556;28;20514;-64
2023/10/20 05:15:53;;;;;;;35.13;27.10;;;12.90;99.90;;;;;;4991919;28;20467;-63
2023/10/20 05:18:20;;;;;;;30.70;26.57;;;12.90;99.90;;;;;;4991366;28;20465;-64
2023/10/20 05:20:47;;;;;;;32.77;28.17;;;12.90;99.90;;;;;;4991516;28;20443;-63
2023/10/20 05:23:15;;;;;;;36.93;28.23;;;12.90;99.90;;;;;;4991424;28;21069;-64
2023/10/20 05:25:48;;;;;;;32.43;29.10;;;12.90;99.90;;;;;;4991508;28;20507;-63
2023/10/20 05:28:19;;;;;;;35.50;28.27;;;12.90;99.90;;;;;;4991418;28;20531;-63
2023/10/20 05:30:46;;;;;;;36.83;31.40;;;12.80;99.90;;;;;;4991298;28;20451;-64
2023/10/20 05:33:15;;;;;;;36.13;29.27;;;12.80;99.90;;;;;;4991203;28;20452;-64
2023/10/20 05:35:41;;;;;;;30.20;27.17;;;12.80;99.90;;;;;;4991141;28;20529;-64
2023/10/20 05:38:09;;;;;;;33.27;27.37;;;12.80;99.90;;;;;;4991510;28;21018;-64
2023/10/20 05:40:37;;;;;;;34.50;27.87;;;12.80;99.90;;;;;;4991556;28;20584;-64
2023/10/20 05:43:06;;;;;;;32.53;28.93;;;12.80;99.90;;;;;;4991450;28;20454;-64
2023/10/20 05:45:38;;;;;;;34.30;30.63;;;12.80;99.90;;;;;;4991129;28;20491;-64
2023/10/20 05:48:06;;;;;;;36.17;28.10;;;12.80;99.90;;;;;;4991483;28;20546;-64
2023/10/20 05:50:35;;;;;;;31.37;27.97;;;12.80;99.90;;;;;;4991213;28;20447;-64
2023/10/20 05:53:02;;;;;;;34.00;28.60;;;12.80;99.90;;;;;;4992919;28;20447;-63
2023/10/20 05:55:29;;;;;;;33.30;26.20;;;12.80;99.90;;;;;;4994893;28;20447;-64
2023/10/20 05:57:57;;;;;;;30.50;26.67;;;12.80;99.90;;;;;;5000744;28;21031;-63
2023/10/20 06:00:24;;;;;;;29.07;25.90;;;12.80;99.90;;;;;;5025224;28;20533;-63
2023/10/20 06:02:51;;;;;;;36.60;28.03;;;12.80;99.90;;;;;;5023847;28;20446;-63
2023/10/20 06:05:18;;;;;;;39.17;30.80;;;12.80;99.90;;;;;;5025304;28;20521;-64
2023/10/20 06:07:47;;;;;;;37.00;28.10;;;12.80;99.90;;;;;;5033872;28;20552;-64
2023/10/20 06:10:21;;;;;;;33.80;28.60;;;12.80;99.90;;;;;;5033560;28;20484;-64
2023/10/20 06:12:49;;;;;;;38.07;29.73;;;12.80;99.90;;;;;;5033987;28;20520;-64
2023/10/20 06:15:18;;;;;;;35.77;31.30;;;12.80;99.90;;;;;;5033765;28;20468;-63
2023/10/20 06:17:45;;;;;;;34.47;28.60;;;12.70;99.90;;;;;;5033881;28;20466;-64
2023/10/20 06:20:13;;;;;;;36.93;29.93;;;12.70;99.90;;;;;;5033388;28;20536;-62
2023/10/20 06:22:40;;;;;;;37.07;31.47;;;12.70;99.90;;;;;;5033778;28;20466;-62
2023/10/20 06:25:12;;;;;;;40.80;35.30;;;12.70;99.90;;;;;;5033651;28;20897;-64
2023/10/20 06:27:39;;;;;;;43.90;37.70;;;12.70;99.90;;;;;;5033418;28;20527;-63
2023/10/20 06:30:14;;;;;;;44.23;35.60;;;12.70;99.90;;;;;;5033467;28;20445;-63
2023/10/20 06:32:43;;;;;;;39.70;31.73;;;12.70;99.90;;;;;;5033728;28;21004;-64
2023/10/20 06:35:12;;;;;;;36.10;32.00;;;12.60;99.90;;;;;;5033560;28;20449;-64
2023/10/20 06:37:46;;;;;;;35.70;29.80;;;12.60;99.90;;;;;;5033237;28;20500;-63
2023/10/20 06:40:15;;;;;;;41.87;34.07;;;12.60;99.90;;;;;;5029106;28;20448;-64
2023/10/20 06:42:43;;;;;;;38.30;34.03;;;12.60;99.90;;;;;;5027912;28;20444;-64
2023/10/20 06:45:10;;;;;;;38.03;34.17;;;12.60;99.90;;;;;;5032770;28;20962;-64
2023/10/20 06:47:39;;;;;;;38.20;32.67;;;12.50;99.90;;;;;;5033058;28;20485;-63
2023/10/20 06:50:08;;;;;;;40.37;33.40;;;12.50;99.90;;;;;;5033092;28;20540;-63
2023/10/20 06:52:36;;;;;;;40.50;32.73;;;12.60;99.90;;;;;;5021965;28;20539;-63
2023/10/20 06:55:03;;;;;;;38.80;32.20;;;12.50;99.90;;;;;;5012971;28;20909;-63
2023/10/20 06:57:30;;;;;;;42.23;31.20;;;12.60;99.90;;;;;;5011973;28;20854;-63
2023/10/20 06:59:57;;;;;;;40.90;33.57;;;12.50;99.90;;;;;;5020856;28;20533;-63
2023/10/20 07:02:24;;;;;;;44.37;34.27;;;12.50;99.90;;;;;;5027404;28;20454;-62
2023/10/20 07:04:50;;;;;;;47.63;33.13;;;12.60;99.90;;;;;;5023742;28;20458;-63
2023/10/20 07:07:19;;;;;;;43.27;36.20;;;12.60;99.90;;;;;;5019075;28;20927;-62
2023/10/20 07:09:45;;;;;;;42.63;34.67;;;12.60;99.90;;;;;;5020739;28;20542;-63
2023/10/20 07:12:14;;;;;;;35.93;32.10;;;12.50;99.90;;;;;;5026860;28;20461;-64
2023/10/20 07:14:42;;;;;;;36.90;33.00;;;12.60;99.90;;;;;;5025963;28;20995;-64
2023/10/20 07:17:11;;;;;;;39.70;35.30;;;12.60;99.90;;;;;;5022259;28;20483;-63
2023/10/20 07:19:38;;;;;;;44.07;34.67;;;12.60;99.90;;;;;;5022109;28;20462;-63
2023/10/20 07:22:05;;;;;;;34.63;30.40;;;12.60;99.90;;;;;;5020117;28;20548;-63
2023/10/20 07:24:34;;;;;;;38.97;34.03;;;12.60;99.90;;;;;;5021837;28;20482;-64
2023/10/20 07:27:02;;;;;;;36.57;32.77;;;12.60;99.90;;;;;;5019235;28;20867;-64
2023/10/20 07:29:29;;;;;;;34.87;31.57;;;12.60;99.90;;;;;;5016707;28;20458;-64
2023/10/20 07:31:56;;;;;;;37.87;32.87;;;12.70;99.90;;;;;;5024099;28;21036;-64
2023/10/20 07:34:23;;;;;;;42.50;32.37;;;12.60;99.90;;;;;;5024735;28;20454;-64
2023/10/20 07:36:51;;;;;;;35.00;31.30;;;12.60;99.90;;;;;;5023726;28;20474;-63
2023/10/20 07:39:18;;;;;;;37.60;32.40;;;12.70;99.90;;;;;;5022734;28;20895;-64
2023/10/20 07:41:47;;;;;;;37.03;33.07;;;12.70;99.90;;;;;;5024840;28;20537;-63
2023/10/20 07:44:15;;;;;;;34.97;28.67;;;12.70;99.90;;;;;;5012758;28;20477;-63
2023/10/20 07:46:43;;;;;;;35.73;29.07;;;12.70;99.90;;;;;;5022376;28;20489;-63
2023/10/20 07:49:11;;;;;;;38.90;29.70;;;12.70;99.90;;;;;;5009616;28;20466;-63
2023/10/20 07:51:38;;;;;;;36.33;30.63;;;12.70;99.90;;;;;;5019965;28;20447;-62
2023/10/20 07:54:05;;;;;;;33.97;30.33;;;12.70;99.90;;;;;;5020169;28;20536;-63
2023/10/20 07:56:32;;;;;;;34.27;27.90;;;12.70;99.90;;;;;;5016955;28;20466;-63
2023/10/20 07:59:00;;;;;;;34.40;30.67;;;12.70;99.90;;;;;;5019849;28;20468;-64
2023/10/20 08:01:27;;;;;;;32.83;29.40;;;12.80;99.90;;;;;;5022161;28;20450;-63
2023/10/20 08:03:54;;;;;;;31.93;27.60;;;12.80;99.90;;;;;;5016409;28;20537;-63
2023/10/20 08:06:21;;;;;;;34.30;29.77;;;12.80;99.90;;;;;;5020325;28;20494;-64
2023/10/20 08:08:48;;;;;;;34.37;28.13;;;12.80;99.90;;;;;;5011646;28;20451;-64
2023/10/20 08:11:14;;;;;;;30.90;27.67;;;12.90;99.90;;;;;;5022295;28;20474;-63
2023/10/20 08:13:41;;;;;;;31.20;27.90;;;12.90;99.90;;;;;;5031269;28;20546;-64
2023/10/20 08:16:09;;;;;;;34.20;29.10;;;12.90;99.90;;;;;;5029536;28;20838;-63
2023/10/20 08:18:36;;;;;;;35.80;29.10;;;12.90;99.90;;;;;;5030409;28;20456;-63
2023/10/20 08:21:05;;;;;;;34.57;26.37;;;12.90;99.90;;;;;;5030318;28;20515;-64
2023/10/20 08:23:33;;;;;;;33.30;28.40;;;12.90;99.90;;;;;;5030316;28;20453;-64
2023/10/20 08:25:59;;;;;;;32.13;26.70;;;13.00;99.90;;;;;;5025191;28;20487;-65
2023/10/20 08:28:26;;;;;;;32.53;26.53;;;13.00;99.90;;;;;;5021835;28;20536;-64
2023/10/20 08:31:03;;;;;;;31.57;28.37;;;13.10;99.90;;;;;;5030201;28;20453;-64
2023/10/20 08:33:33;;;;;;;30.40;26.93;;;13.10;99.90;;;;;;5011197;28;20450;-64
2023/10/20 08:36:11;;;;;;;30.00;26.97;;;13.20;99.90;;;;;;5009184;28;21102;-65
2023/10/20 08:38:39;;;;;;;29.10;26.00;;;13.20;99.90;;;;;;5014555;28;20454;-65
2023/10/20 08:41:10;;;;;;;29.87;25.27;;;13.20;99.90;;;;;;5008596;28;20961;-64
2023/10/20 08:43:39;;;;;;;26.33;23.57;;;13.30;99.90;;;;;;5010142;28;20486;-65
2023/10/20 08:46:08;;;;;;;28.40;25.40;;;13.30;99.90;;;;;;5006980;28;20479;-64
2023/10/20 08:48:38;;;;;;;28.10;25.00;;;13.30;99.90;;;;;;5021791;28;20474;-64
2023/10/20 08:51:06;;;;;;;29.80;25.40;;;13.30;99.90;;;;;;5013168;28;20450;-65
2023/10/20 08:53:36;;;;;;;29.07;24.80;;;13.30;99.90;;;;;;5019163;28;20457;-65
2023/10/20 08:56:04;;;;;;;27.83;24.93;;;13.30;99.90;;;;;;5017986;28;20513;-65
2023/10/20 08:58:32;;;;;;;28.87;25.80;;;13.30;99.90;;;;;;5021556;28;20896;-64
2023/10/20 09:00:59;;;;;;;32.43;25.63;;;13.30;99.90;;;;;;5016896;28;20530;-64
2023/10/20 09:03:27;;;;;;;28.07;25.13;;;13.30;99.90;;;;;;5018885;28;20482;-64
2023/10/20 09:06:05;;;;;;;30.97;27.33;;;13.30;99.90;;;;;;5016927;28;21028;-65
2023/10/20 09:08:32;;;;;;;33.23;27.47;;;13.30;99.90;;;;;;5003845;28;20449;-64
2023/10/20 09:10:58;;;;;;;29.13;25.97;;;13.40;99.90;;;;;;5010254;28;20546;-66
2023/10/20 09:13:32;;;;;;;32.03;24.73;;;13.40;99.90;;;;;;5015002;28;20537;-65
2023/10/20 09:15:58;;;;;;;27.00;24.10;;;13.50;99.90;;;;;;5015775;28;20489;-65
2023/10/20 09:18:25;;;;;;;27.70;24.53;;;13.50;99.90;;;;;;5020039;28;20532;-65
2023/10/20 09:20:52;;;;;;;30.70;27.47;;;13.50;99.90;;;;;;5020639;28;20809;-64
2023/10/20 09:23:20;;;;;;;26.83;24.13;;;13.60;99.90;;;;;;5019708;28;20893;-66
2023/10/20 09:25:48;;;;;;;30.37;25.70;;;13.60;99.90;;;;;;5014807;28;20841;-65
2023/10/20 09:28:15;;;;;;;25.93;23.33;;;13.60;99.90;;;;;;5023272;28;20856;-65
2023/10/20 09:30:42;;;;;;;27.10;24.33;;;13.60;99.90;;;;;;5026246;28;20455;-64
2023/10/20 09:33:11;;;;;;;29.20;24.80;;;13.70;99.90;;;;;;5016425;28;20830;-63
2023/10/20 09:35:40;;;;;;;27.17;24.40;;;13.70;99.90;;;;;;5020946;28;20455;-64
2023/10/20 09:38:10;;;;;;;26.10;22.80;;;13.70;99.90;;;;;;5018501;28;20868;-63
2023/10/20 09:40:41;;;;;;;27.47;24.30;;;13.70;99.90;;;;;;5024604;28;20531;-64
2023/10/20 09:43:15;;;;;;;29.27;26.07;;;13.70;99.90;;;;;;5024152;28;20454;-64
2023/10/20 09:45:48;;;;;;;26.87;24.40;;;13.70;99.90;;;;;;5024915;28;20477;-65
2023/10/20 09:48:19;;;;;;;28.70;25.10;;;13.70;99.90;;;;;;5012310;28;20578;-65
2023/10/20 09:50:47;;;;;;;28.87;25.97;;;13.80;99.90;;;;;;5030478;28;20816;-64
2023/10/20 09:53:15;;;;;;;29.10;26.23;;;13.80;99.90;;;;;;5020823;28;20459;-64
2023/10/20 09:55:45;;;;;;;25.57;22.97;;;13.80;99.90;;;;;;5027487;28;20924;-64
2023/10/20 09:58:12;;;;;;;27.00;24.00;;;13.80;99.90;;;;;;5026500;28;20513;-65
2023/10/20 10:00:43;;;;;;;25.23;22.80;;;13.90;99.90;;;;;;5013963;28;20443;-65
2023/10/20 10:03:12;;;;;;;27.20;23.70;;;13.90;99.90;;;;;;4997343;28;20443;-64
2023/10/20 10:05:39;;;;;;;27.00;24.27;;;14.00;99.90;;;;;;5018723;28;20456;-64
2023/10/20 10:08:07;;;;;;;26.77;24.00;;;14.00;99.90;;;;;;5021774;28;21020;-65
2023/10/20 10:10:35;;;;;;;29.73;27.00;;;14.10;99.90;;;;;;5017908;28;21017;-64
2023/10/20 10:13:05;;;;;;;26.57;23.40;;;14.10;99.90;;;;;;4996447;28;20444;-64
2023/10/20 10:15:38;;;;;;;27.23;23.10;;;14.10;99.90;;;;;;5007309;28;20447;-64
2023/10/20 10:18:09;;;;;;;22.67;20.47;;;14.10;99.90;;;;;;5011518;28;20453;-65
2023/10/20 10:20:42;;;;;;;25.97;23.37;;;14.20;99.90;;;;;;5026259;28;20434;-64
2023/10/20 10:23:12;;;;;;;24.60;22.23;;;14.20;99.90;;;;;;5010787;28;20605;-65
2023/10/20 10:25:41;;;;;;;24.87;22.17;;;14.30;99.90;;;;;;4999073;28;20522;-65
2023/10/20 10:28:14;;;;;;;24.83;22.30;;;14.30;99.90;;;;;;5004139;28;20479;-64
2023/10/20 10:30:42;;;;;;;23.27;20.60;;;14.30;99.90;;;;;;5007966;28;20457;-65
2023/10/20 10:33:11;;;;;;;25.00;22.40;;;14.40;99.90;;;;;;4996443;28;20443;-64
2023/10/20 10:35:38;;;;;;;24.53;22.10;;;14.40;99.90;;;;;;5006316;28;20815;-65
2023/10/20 10:38:08;;;;;;;22.40;20.20;;;14.40;99.90;;;;;;5002545;28;20443;-64
2023/10/20 10:40:35;;;;;;;24.00;21.50;;;14.50;99.90;;;;;;4998505;28;20452;-64
2023/10/20 10:43:01;;;;;;;25.10;22.60;;;14.50;99.90;;;;;;5009424;28;20813;-65
2023/10/20 10:45:31;;;;;;;23.27;21.03;;;14.60;99.90;;;;;;5016823;28;20446;-65
2023/10/20 10:48:06;;;;;;;22.30;20.00;;;14.70;99.90;;;;;;5023273;28;20576;-65
2023/10/20 10:50:36;;;;;;;24.27;21.73;;;14.70;99.90;;;;;;5019214;28;20443;-66
2023/10/20 10:53:02;;;;;;;26.37;22.73;;;14.90;99.90;;;;;;5022026;28;20451;-65
2023/10/20 10:55:29;;;;;;;26.13;23.23;;;14.90;99.90;;;;;;5026593;28;20538;-65
2023/10/20 10:57:57;;;;;;;26.97;24.10;;;14.90;99.90;;;;;;5003292;28;20495;-66
2023/10/20 11:00:25;;;;;;;25.37;21.90;;;15.00;99.90;;;;;;5005198;28;21040;-65
2023/10/20 11:02:54;;;;;;;26.40;20.10;;;15.10;99.90;;;;;;4995581;28;20454;-66
2023/10/20 11:05:21;;;;;;;24.50;22.00;;;15.10;99.90;;;;;;5007600;28;20444;-65
2023/10/20 11:08:02;;;;;;;25.40;23.00;;;15.20;99.90;;;;;;5020874;28;20560;-65
2023/10/20 11:10:29;;;;;;;25.93;23.40;;;15.20;99.90;;;;;;5005873;28;20454;-65
2023/10/20 11:12:57;;;;;;;24.80;22.30;;;15.20;99.90;;;;;;4995859;28;20535;-65
2023/10/20 11:15:28;;;;;;;25.83;22.93;;;15.30;99.90;;;;;;5007168;28;20454;-65
2023/10/20 11:17:58;;;;;;;25.87;23.37;;;15.30;99.90;;;;;;5001319;28;20453;-66
2023/10/20 11:20:25;;;;;;;29.73;26.83;;;15.30;99.90;;;;;;4998166;28;20922;-65
2023/10/20 11:22:55;;;;;;;26.60;23.90;;;15.40;99.90;;;;;;5008474;28;20231;-65
2023/10/20 11:25:24;;;;;;;24.00;21.50;;;15.50;99.90;;;;;;4995729;28;20533;-65
2023/10/20 11:27:54;;;;;;;22.67;20.47;;;15.50;99.90;;;;;;5003186;28;20487;-66
2023/10/20 11:30:25;;;;;;;23.60;21.33;;;15.50;99.90;;;;;;5004612;28;20533;-65
2023/10/20 11:32:54;;;;;;;24.10;21.53;;;15.50;99.90;;;;;;4995776;28;20518;-65
2023/10/20 11:35:24;;;;;;;21.57;19.37;;;15.60;99.90;;;;;;5021076;28;20450;-66
2023/10/20 11:37:51;;;;;;;21.23;19.03;;;15.60;99.90;;;;;;5016453;28;20887;-66
2023/10/20 11:40:18;;;;;;;23.43;21.23;;;15.70;99.90;;;;;;4999343;28;20535;-66
2023/10/20 11:42:45;;;;;;;21.57;19.37;;;15.80;99.90;;;;;;5007466;28;20525;-66
2023/10/20 11:45:12;;;;;;;25.77;21.30;;;15.90;99.90;;;;;;4995322;28;20522;-65
2023/10/20 11:47:39;;;;;;;21.23;19.30;;;16.00;99.90;;;;;;5004524;28;20570;-66
2023/10/20 11:50:08;;;;;;;21.90;19.67;;;16.20;99.90;;;;;;5000821;28;20526;-66
2023/10/20 11:52:36;;;;;;;20.43;18.30;;;16.30;99.90;;;;;;4997147;28;20554;-64
2023/10/20 11:55:04;;;;;;;19.07;17.13;;;16.30;99.90;;;;;;5007747;28;20451;-66
2023/10/20 11:57:31;;;;;;;20.13;18.33;;;16.30;99.90;;;;;;4997045;28;20546;-65
2023/10/20 11:59:57;;;;;;;20.40;18.50;;;16.30;99.90;;;;;;5001912;28;20447;-65
2023/10/20 12:02:24;;;;;;;19.93;18.03;;;16.40;99.90;;;;;;5004300;28;20447;-66
2023/10/20 12:04:51;;;;;;;20.77;18.87;;;16.40;99.90;;;;;;4994852;28;20444;-65
2023/10/20 12:07:18;;;;;;;22.13;19.83;;;16.40;99.90;;;;;;5006906;28;20582;-66
2023/10/20 12:09:47;;;;;;;20.23;18.20;;;16.40;99.90;;;;;;4998959;28;20447;-65
2023/10/20 12:12:14;;;;;;;19.90;18.03;;;16.40;99.90;;;;;;4999847;28;20450;-66
2023/10/20 12:14:40;;;;;;;19.33;17.53;;;16.40;99.90;;;;;;5006176;28;20826;-65
2023/10/20 12:17:07;;;;;;;19.23;17.37;;;16.40;99.90;;;;;;4994274;28;20463;-66
2023/10/20 12:19:34;;;;;;;20.50;18.83;;;16.40;99.90;;;;;;5004557;28;20447;-65
2023/10/20 12:22:01;;;;;;;20.00;18.20;;;16.40;99.90;;;;;;5000527;28;20530;-66
2023/10/20 12:24:28;;;;;;;21.53;19.37;;;16.40;99.90;;;;;;5012655;28;20956;-65
2023/10/20 12:26:56;;;;;;;21.40;19.37;;;16.50;99.90;;;;;;5009772;28;20474;-66
2023/10/20 12:29:24;;;;;;;18.40;16.80;;;16.50;99.90;;;;;;4995471;28;20853;-66
2023/10/20 12:31:51;;;;;;;20.03;18.13;;;16.50;99.90;;;;;;5002627;28;21017;-66
2023/10/20 12:34:18;;;;;;;17.90;16.27;;;16.50;99.90;;;;;;5002578;28;20445;-66
2023/10/20 12:36:45;;;;;;;19.40;17.70;;;16.50;99.90;;;;;;4994589;28;20468;-65
2023/10/20 12:39:17;;;;;;;21.23;19.33;;;16.50;99.90;;;;;;5006963;28;20889;-65
2023/10/20 12:41:44;;;;;;;21.37;19.37;;;16.50;99.90;;;;;;4998158;28;20506;-65
2023/10/20 12:44:13;;;;;;;21.50;19.50;;;16.50;99.90;;;;;;4999463;28;20443;-65
2023/10/20 12:46:41;;;;;;;21.00;19.17;;;16.40;99.90;;;;;;5010509;28;21169;-66
2023/10/20 12:49:08;;;;;;;20.87;18.87;;;16.40;99.90;;;;;;5019047;28;20482;-66
2023/10/20 12:51:35;;;;;;;23.97;21.77;;;16.40;99.90;;;;;;5004633;28;20889;-65
2023/10/20 12:54:03;;;;;;;21.77;19.93;;;16.40;99.90;;;;;;5000316;28;20453;-66
2023/10/20 12:56:30;;;;;;;20.27;18.20;;;16.40;99.90;;;;;;5009457;28;20465;-66